Time;durP1;ratioP1;P1;durP2;ratioP2;P2;SDS_P1;SDS_P2;PMS_P1;PMS_P2;Temp;Humidity;BMP_temperature;BMP_pressure;BME280_temperature;BME280_humidity;BME280_pressure;Samples;Min_cycle;Max_cycle;Signal;HPM_P1;HPM_P2
2024/01/13 00:00:34;;;;;;;85.53;24.80;;;;;;;-0.20;77.68;100958.94;4995415;28;20589;-88
2024/01/13 00:03:00;;;;;;;82.13;24.17;;;;;;;-0.20;77.59;100962.44;5006096;28;20049;-85
2024/01/13 00:05:29;;;;;;;82.00;28.73;;;;;;;-0.20;77.04;100946.00;5003648;28;20033;-83
2024/01/13 00:07:55;;;;;;;79.80;26.90;;;;;;;-0.24;77.57;100949.25;4990054;28;20033;-83
2024/01/13 00:10:20;;;;;;;72.15;28.63;;;;;;;-0.31;77.67;100946.38;4989646;28;20117;-83
2024/01/13 00:12:46;;;;;;;87.17;28.07;;;;;;;-0.34;77.92;100959.16;5002333;28;20108;-88
2024/01/13 00:15:11;;;;;;;128.17;32.90;;;;;;;-0.36;77.42;100960.78;5008705;28;20493;-86
2024/01/13 00:17:36;;;;;;;106.80;33.13;;;;;;;-0.42;77.46;100960.44;5009000;28;20030;-87
2024/01/13 00:20:03;;;;;;;105.77;33.83;;;;;;;-0.50;77.81;100966.91;5008285;28;20030;-84
2024/01/13 00:22:28;;;;;;;96.70;34.58;;;;;;;-0.57;77.79;100960.53;5008806;28;20030;-85
2024/01/13 00:24:54;;;;;;;89.93;30.70;;;;;;;-0.64;77.96;100956.72;5007162;28;20044;-85
2024/01/13 00:27:20;;;;;;;89.73;30.00;;;;;;;-0.64;78.38;100963.59;4990428;28;20034;-88
2024/01/13 00:29:46;;;;;;;95.93;30.33;;;;;;;-0.62;77.97;100962.00;4990299;28;20742;-88
2024/01/13 00:32:11;;;;;;;75.28;29.73;;;;;;;-0.59;78.16;100950.13;4990661;28;20105;-85
2024/01/13 00:34:36;;;;;;;81.80;28.30;;;;;;;-0.59;77.89;100937.19;4990723;28;20038;-87
2024/01/13 00:37:02;;;;;;;75.97;27.83;;;;;;;-0.60;78.08;100956.09;4993914;28;20026;-87
2024/01/13 00:39:27;;;;;;;86.50;30.10;;;;;;;-0.58;78.06;100963.94;4994653;28;20023;-86
2024/01/13 00:41:53;;;;;;;79.30;27.63;;;;;;;-0.60;78.29;100955.19;4994517;28;20034;-87
2024/01/13 00:44:18;;;;;;;73.80;26.37;;;;;;;-0.64;77.64;100938.63;4992781;28;20042;-84
2024/01/13 00:46:43;;;;;;;65.13;24.17;;;;;;;-0.72;78.43;100950.28;4998249;28;20323;-87
2024/01/13 00:49:09;;;;;;;68.30;24.70;;;;;;;-0.73;78.41;100958.84;5012663;28;20033;-87
2024/01/13 00:51:35;;;;;;;59.17;22.80;;;;;;;-0.71;78.28;100967.56;4994838;28;20145;-88
2024/01/13 00:54:01;;;;;;;79.20;25.17;;;;;;;-0.68;77.95;100957.38;4994054;28;20038;-87
2024/01/13 00:56:26;;;;;;;69.73;25.33;;;;;;;-0.70;77.91;100951.25;4994045;28;20397;-87
2024/01/13 00:58:51;;;;;;;69.73;24.20;;;;;;;-0.72;78.29;100932.16;4993463;28;20401;-85
2024/01/13 01:01:17;;;;;;;63.90;23.87;;;;;;;-0.78;78.25;100924.09;4994039;28;20582;-88
2024/01/13 01:03:42;;;;;;;60.13;22.75;;;;;;;-0.84;78.19;100928.91;4994211;28;20033;-87
2024/01/13 01:06:08;;;;;;;63.80;24.07;;;;;;;-0.88;78.10;100933.06;4994210;28;20465;-87
2024/01/13 01:08:33;;;;;;;72.83;24.43;;;;;;;-0.91;78.54;100927.72;4993929;28;20026;-87
2024/01/13 01:10:58;;;;;;;76.07;24.83;;;;;;;-0.91;78.23;100918.25;4993886;28;20034;-87
2024/01/13 01:13:24;;;;;;;63.60;24.40;;;;;;;-0.89;78.40;100914.06;5011890;28;20060;-87
2024/01/13 01:15:49;;;;;;;65.43;22.10;;;;;;;-0.90;78.76;100909.69;5012987;28;20096;-87
2024/01/13 01:18:15;;;;;;;84.60;26.40;;;;;;;-0.88;78.63;100910.66;5013066;28;20486;-81
2024/01/13 01:20:40;;;;;;;65.37;23.90;;;;;;;-0.88;78.50;100902.91;5012392;28;20038;-86
2024/01/13 01:23:05;;;;;;;67.65;23.10;;;;;;;-0.91;78.71;100905.31;5013217;28;20033;-86
2024/01/13 01:25:31;;;;;;;60.30;23.27;;;;;;;-0.89;78.52;100914.06;5001544;28;20045;-87
2024/01/13 01:27:56;;;;;;;86.90;25.00;;;;;;;-0.87;78.34;100906.38;4993550;28;20479;-87
2024/01/13 01:30:23;;;;;;;73.67;26.20;;;;;;;-0.85;77.94;100890.94;4993400;28;20034;-87
2024/01/13 01:32:49;;;;;;;70.97;26.08;;;;;;;-0.92;78.32;100885.44;4994863;28;20593;-87
2024/01/13 01:35:14;;;;;;;92.65;27.67;;;;;;;-0.98;78.79;100885.13;4993728;28;20092;-87
2024/01/13 01:37:40;;;;;;;82.83;27.27;;;;;;;-1.03;78.90;100892.63;4993688;28;20030;-86
2024/01/13 01:40:07;;;;;;;91.77;29.57;;;;;;;-1.07;78.73;100895.00;4993565;28;20060;-86
2024/01/13 01:42:33;;;;;;;95.10;28.38;;;;;;;-1.12;78.63;100893.84;4993435;28;20029;-87
2024/01/13 01:44:58;;;;;;;79.27;28.07;;;;;;;-1.14;79.55;100898.94;4993245;28;20046;-87
2024/01/13 01:47:25;;;;;;;77.50;28.47;;;;;;;-1.16;79.42;100909.19;5002259;28;20108;-87
2024/01/13 01:49:51;;;;;;;109.05;29.85;;;;;;;-1.17;79.57;100904.81;5008185;28;20041;-87
2024/01/13 01:52:16;;;;;;;82.50;26.50;;;;;;;-1.17;79.72;100909.13;4993274;28;20026;-81
2024/01/13 01:54:43;;;;;;;88.17;26.97;;;;;;;-1.14;79.58;100898.94;4992964;28;20133;-87
2024/01/13 01:57:14;;;;;;;93.72;25.13;;;;;;;-1.09;79.54;100901.75;4992921;28;20117;-87
2024/01/13 01:59:40;;;;;;;102.22;25.52;;;;;;;-1.05;79.94;100901.13;4992467;28;20050;-87
2024/01/13 02:02:06;;;;;;;103.27;24.20;;;;;;;-1.03;80.08;100896.94;4992803;28;20042;-88
2024/01/13 02:04:31;;;;;;;108.35;21.75;;;;;;;-0.98;80.18;100900.66;4993076;28;20532;-83
2024/01/13 02:06:57;;;;;;;75.83;20.93;;;;;;;-0.95;80.00;100903.41;4992756;28;20039;-86
2024/01/13 02:09:22;;;;;;;96.00;23.93;;;;;;;-0.90;80.84;100899.34;4992696;28;20022;-87
2024/01/13 02:11:48;;;;;;;112.72;21.58;;;;;;;-0.88;80.46;100897.72;4992882;28;20022;-86
2024/01/13 02:14:14;;;;;;;86.63;23.27;;;;;;;-0.85;80.12;100890.94;4992314;28;20561;-86
2024/01/13 02:16:39;;;;;;;101.30;24.23;;;;;;;-0.81;80.18;100885.16;4992502;28;20054;-86
2024/01/13 02:19:04;;;;;;;94.83;24.30;;;;;;;-0.77;81.00;100884.50;4992327;28;20117;-85
2024/01/13 02:21:30;;;;;;;87.00;21.77;;;;;;;-0.76;80.84;100894.03;4983824;28;20034;-86
2024/01/13 02:23:55;;;;;;;102.57;24.52;;;;;;;-0.74;81.16;100895.00;4989193;28;20058;-86
2024/01/13 02:26:21;;;;;;;93.37;23.77;;;;;;;-0.70;81.41;100906.41;4984450;28;20062;-86
2024/01/13 02:28:46;;;;;;;106.90;24.97;;;;;;;-0.68;81.33;100913.41;4992531;28;20069;-84
2024/01/13 02:31:15;;;;;;;102.23;24.60;;;;;;;-0.67;81.12;100911.72;4991915;28;20027;-84
2024/01/13 02:33:40;;;;;;;118.93;21.33;;;;;;;-0.68;81.69;100899.59;4992119;28;20042;-86
2024/01/13 02:36:06;;;;;;;117.77;22.27;;;;;;;-0.69;82.62;100890.94;4991943;28;20085;-85
2024/01/13 02:38:31;;;;;;;83.47;17.83;;;;;;;-0.67;82.29;100885.84;4991898;28;20029;-86
2024/01/13 02:40:56;;;;;;;111.50;21.13;;;;;;;-0.65;82.86;100887.69;4991836;28;20277;-86
2024/01/13 02:43:22;;;;;;;120.47;21.07;;;;;;;-0.63;82.92;100895.53;4992080;28;20042;-86
2024/01/13 02:45:47;;;;;;;87.87;18.00;;;;;;;-0.64;82.73;100886.88;4991619;28;20453;-84
2024/01/13 02:48:20;;;;;;;97.47;21.33;;;;;;;-0.67;83.55;100881.56;4991894;28;20030;-86
2024/01/13 02:50:53;;;;;;;79.03;18.42;;;;;;;-0.65;82.53;100882.53;4982438;28;20061;-86
2024/01/13 02:53:18;;;;;;;91.53;16.98;;;;;;;-0.65;82.59;100874.75;4990245;28;20096;-86
2024/01/13 02:55:44;;;;;;;93.10;18.00;;;;;;;-0.63;82.49;100873.13;4991431;28;20113;-86
2024/01/13 02:58:09;;;;;;;96.70;18.27;;;;;;;-0.62;82.61;100854.22;4991160;28;20029;-86
2024/01/13 03:00:34;;;;;;;67.37;15.50;;;;;;;-0.60;82.39;100842.28;4991323;28;20105;-86
2024/01/13 03:03:00;;;;;;;66.35;16.25;;;;;;;-0.53;82.06;100840.00;4991244;28;20065;-86
2024/01/13 03:05:25;;;;;;;144.30;20.40;;;;;;;-0.50;82.51;100848.78;4991558;28;20126;-76
2024/01/13 03:07:50;;;;;;;79.37;17.10;;;;;;;-0.50;82.14;100840.16;4991546;28;20034;-86
2024/01/13 03:10:16;;;;;;;71.17;17.83;;;;;;;-0.50;81.98;100837.56;4991703;28;20034;-86
2024/01/13 03:12:41;;;;;;;69.13;16.00;;;;;;;-0.51;82.32;100833.19;5003900;28;20026;-83
2024/01/13 03:15:07;;;;;;;72.00;19.13;;;;;;;-0.48;82.22;100833.34;4992889;28;20296;-86
2024/01/13 03:17:32;;;;;;;83.17;17.37;;;;;;;-0.49;81.84;100834.16;5004847;28;20030;-86
2024/01/13 03:19:58;;;;;;;110.13;19.50;;;;;;;-0.47;82.51;100840.28;4992866;28;20034;-86
2024/01/13 03:22:23;;;;;;;97.38;18.35;;;;;;;-0.45;82.37;100836.09;5010955;28;20065;-86
2024/01/13 03:24:49;;;;;;;93.50;19.00;;;;;;;-0.46;82.48;100829.13;5008961;28;20042;-76
2024/01/13 03:27:14;;;;;;;96.57;19.90;;;;;;;-0.48;82.24;100823.91;4991518;28;20101;-83
2024/01/13 03:29:40;;;;;;;69.18;17.35;;;;;;;-0.47;82.28;100817.00;4990572;28;20026;-80
2024/01/13 03:32:05;;;;;;;74.57;17.73;;;;;;;-0.49;82.66;100809.16;4990981;28;20537;-79
2024/01/13 03:34:31;;;;;;;67.90;16.10;;;;;;;-0.48;82.40;100808.38;4990579;28;20065;-80
2024/01/13 03:36:56;;;;;;;66.88;16.40;;;;;;;-0.50;82.62;100802.22;4990644;28;20058;-76
2024/01/13 03:39:22;;;;;;;97.47;19.30;;;;;;;-0.49;82.78;100798.81;4990691;28;20037;-77
2024/01/13 03:41:49;;;;;;;63.43;16.37;;;;;;;-0.48;82.32;100802.31;4990696;28;20030;-79
2024/01/13 03:44:14;;;;;;;105.18;19.63;;;;;;;-0.48;82.32;100799.72;4990321;28;20026;-82
2024/01/13 03:46:40;;;;;;;93.87;17.10;;;;;;;-0.50;82.22;100791.00;4993722;28;20037;-78
2024/01/13 03:49:05;;;;;;;58.97;16.43;;;;;;;-0.49;82.70;100792.75;5021736;28;20026;-77
2024/01/13 03:51:30;;;;;;;77.60;18.73;;;;;;;-0.49;82.94;100787.59;4996519;28;20410;-77
2024/01/13 03:53:56;;;;;;;108.17;20.03;;;;;;;-0.49;82.72;100793.63;5008933;28;20034;-86
2024/01/13 03:56:22;;;;;;;87.20;17.87;;;;;;;-0.52;82.85;100787.44;5008316;28;20088;-77
2024/01/13 03:58:47;;;;;;;119.97;21.33;;;;;;;-0.54;83.18;100784.75;5009134;28;20285;-75
2024/01/13 04:01:12;;;;;;;73.47;19.60;;;;;;;-0.53;82.57;100785.66;5010154;28;20402;-86
2024/01/13 04:03:38;;;;;;;120.07;21.97;;;;;;;-0.54;82.90;100787.34;5010030;28;20124;-75
2024/01/13 04:06:04;;;;;;;124.77;22.63;;;;;;;-0.56;82.89;100793.28;5009941;28;20029;-78
2024/01/13 04:08:29;;;;;;;81.00;18.48;;;;;;;-0.56;82.98;100795.88;5010058;28;20034;-85
2024/01/13 04:10:54;;;;;;;105.03;21.07;;;;;;;-0.56;83.30;100791.56;5009101;28;20034;-79
2024/01/13 04:13:20;;;;;;;123.10;21.93;;;;;;;-0.57;83.96;100799.28;5007349;28;20030;-81
2024/01/13 04:15:45;;;;;;;108.50;21.67;;;;;;;-0.59;83.35;100789.72;4989659;28;20034;-79
2024/01/13 04:18:11;;;;;;;90.30;20.63;;;;;;;-0.60;83.52;100793.13;4972675;28;20495;-82
2024/01/13 04:20:36;;;;;;;69.90;16.20;;;;;;;-0.62;83.65;100784.38;4990354;28;20070;-77
2024/01/13 04:23:01;;;;;;;119.90;26.80;;;;;;;-0.61;83.66;100783.56;4972734;28;20030;-78
2024/01/13 04:25:27;;;;;;;87.37;20.67;;;;;;;-0.59;83.47;100789.72;4997435;28;20045;-82
2024/01/13 04:27:54;;;;;;;76.77;20.60;;;;;;;-0.55;83.28;100795.06;4994724;28;20457;-86
2024/01/13 04:30:19;;;;;;;84.57;17.58;;;;;;;-0.53;83.11;100788.25;4989743;28;20113;-78
2024/01/13 04:32:45;;;;;;;77.87;17.20;;;;;;;-0.55;83.46;100779.53;4990095;28;20113;-79
2024/01/13 04:35:11;;;;;;;81.33;18.33;;;;;;;-0.57;83.65;100779.44;4990069;28;20297;-77
2024/01/13 04:37:36;;;;;;;67.82;14.95;;;;;;;-0.61;83.87;100774.94;4989911;28;20030;-78
2024/01/13 04:40:03;;;;;;;83.63;16.67;;;;;;;-0.64;83.98;100777.38;4990086;28;20034;-80
2024/01/13 04:42:31;;;;;;;79.50;17.60;;;;;;;-0.64;83.59;100783.41;4990122;28;20030;-78
2024/01/13 04:44:56;;;;;;;62.55;14.25;;;;;;;-0.65;83.88;100776.47;4989643;28;20030;-85
2024/01/13 04:47:24;;;;;;;64.60;12.80;;;;;;;-0.67;83.60;100770.34;4999004;28;20041;-80
2024/01/13 04:49:49;;;;;;;60.92;13.30;;;;;;;-0.68;83.84;100765.97;5005144;28;20081;-86
2024/01/13 04:52:15;;;;;;;70.83;13.10;;;;;;;-0.64;83.51;100767.91;4989922;28;20034;-78
2024/01/13 04:54:40;;;;;;;59.03;15.23;;;;;;;-0.63;83.49;100764.50;4972225;28;20066;-80
2024/01/13 04:57:05;;;;;;;50.17;14.43;;;;;;;-0.60;83.44;100762.09;4989588;28;20164;-84
2024/01/13 04:59:31;;;;;;;82.10;15.45;;;;;;;-0.56;83.35;100757.06;4989585;28;20130;-84
2024/01/13 05:01:56;;;;;;;71.23;14.53;;;;;;;-0.57;82.88;100766.50;4990014;28;20034;-83
2024/01/13 05:04:21;;;;;;;80.47;15.33;;;;;;;-0.61;83.05;100767.19;4989925;28;20045;-81
2024/01/13 05:06:47;;;;;;;59.73;15.67;;;;;;;-0.66;82.79;100769.53;4989823;28;20518;-78
2024/01/13 05:09:12;;;;;;;83.00;15.70;;;;;;;-0.66;83.06;100769.53;4989860;28;20498;-76
2024/01/13 05:11:37;;;;;;;73.57;16.03;;;;;;;-0.63;83.03;100763.63;4993486;28;20034;-77
2024/01/13 05:14:03;;;;;;;72.65;15.88;;;;;;;-0.63;83.27;100758.47;5008747;28;20117;-77
2024/01/13 05:16:28;;;;;;;60.60;15.50;;;;;;;-0.63;83.14;100764.50;5009039;28;20120;-81
2024/01/13 05:18:54;;;;;;;67.13;15.37;;;;;;;-0.63;83.07;100766.22;5009163;28;20421;-78
2024/01/13 05:21:19;;;;;;;77.20;17.30;;;;;;;-0.70;83.22;100777.94;5009775;28;20061;-76
2024/01/13 05:23:45;;;;;;;58.20;14.68;;;;;;;-0.73;83.23;100783.84;5011385;28;20532;-85
2024/01/13 05:26:10;;;;;;;68.37;15.33;;;;;;;-0.72;82.85;100784.75;5001709;28;20042;-83
2024/01/13 05:28:35;;;;;;;55.57;13.13;;;;;;;-0.78;83.18;100790.50;4993334;28;20031;-77
2024/01/13 05:31:01;;;;;;;44.93;13.83;;;;;;;-0.80;83.27;100791.25;4992752;28;20030;-79
2024/01/13 05:33:26;;;;;;;54.38;16.30;;;;;;;-0.78;83.44;100789.63;4993004;28;20030;-82
2024/01/13 05:35:53;;;;;;;43.97;13.07;;;;;;;-0.77;83.04;100788.81;4992983;28;20038;-85
2024/01/13 05:38:19;;;;;;;33.05;12.18;;;;;;;-0.77;83.42;100775.88;4992918;28;20109;-79
2024/01/13 05:40:44;;;;;;;43.90;12.53;;;;;;;-0.73;82.98;100786.44;4992952;28;20134;-86
2024/01/13 05:43:10;;;;;;;48.08;13.23;;;;;;;-0.71;83.25;100790.81;4992871;28;20037;-78
2024/01/13 05:45:36;;;;;;;57.13;14.63;;;;;;;-0.75;82.71;100790.63;4992860;28;20054;-79
2024/01/13 05:48:01;;;;;;;70.83;13.03;;;;;;;-0.79;82.97;100777.50;5007015;28;20394;-85
2024/01/13 05:50:30;;;;;;;78.53;13.77;;;;;;;-0.86;83.42;100771.13;5002723;28;20030;-83
2024/01/13 05:52:56;;;;;;;60.15;13.50;;;;;;;-0.87;83.18;100770.22;4992682;28;20118;-82
2024/01/13 05:55:22;;;;;;;57.90;12.00;;;;;;;-0.88;83.20;100778.78;4992149;28;20054;-79
2024/01/13 05:57:47;;;;;;;42.63;10.43;;;;;;;-0.94;83.43;100778.47;4992525;28;20058;-78
2024/01/13 06:00:13;;;;;;;51.47;11.27;;;;;;;-0.91;83.54;100776.06;4992061;28;20046;-77
2024/01/13 06:02:39;;;;;;;54.72;11.73;;;;;;;-0.93;83.18;100789.72;4992586;28;20093;-84
2024/01/13 06:05:06;;;;;;;40.73;11.20;;;;;;;-0.93;83.24;100788.00;4992576;28;20442;-86
2024/01/13 06:07:31;;;;;;;60.40;12.20;;;;;;;-0.94;83.27;100783.66;4992176;28;20026;-77
2024/01/13 06:09:57;;;;;;;51.20;11.18;;;;;;;-0.90;83.36;100785.59;4992514;28;20030;-76
2024/01/13 06:12:22;;;;;;;59.23;12.23;;;;;;;-0.89;83.18;100789.94;5001896;28;20038;-76
2024/01/13 06:14:48;;;;;;;46.63;10.23;;;;;;;-0.90;83.23;100789.88;5011361;28;20029;-82
2024/01/13 06:17:13;;;;;;;63.00;11.90;;;;;;;-0.89;82.79;100774.44;5011723;28;20029;-77
2024/01/13 06:19:38;;;;;;;50.57;10.53;;;;;;;-0.90;82.91;100759.72;5011659;28;20108;-83
2024/01/13 06:22:04;;;;;;;48.22;10.95;;;;;;;-0.93;82.78;100762.16;5011738;28;20556;-81
2024/01/13 06:24:29;;;;;;;46.87;10.77;;;;;;;-0.93;83.12;100758.72;5010082;28;20025;-78
2024/01/13 06:26:55;;;;;;;48.17;10.30;;;;;;;-0.92;82.69;100763.94;4977005;28;20471;-85
2024/01/13 06:29:20;;;;;;;37.47;10.53;;;;;;;-0.93;82.78;100764.75;4991578;28;20038;-77
2024/01/13 06:31:45;;;;;;;46.70;10.50;;;;;;;-0.96;83.01;100758.56;4991951;28;20077;-80
2024/01/13 06:34:11;;;;;;;35.23;9.70;;;;;;;-0.97;82.82;100762.81;4990602;28;20288;-79
2024/01/13 06:36:36;;;;;;;46.53;10.93;;;;;;;-0.98;82.90;100768.81;4991802;28;20034;-84
2024/01/13 06:39:02;;;;;;;40.80;9.20;;;;;;;-0.97;82.72;100768.00;4991991;28;20105;-81
2024/01/13 06:41:27;;;;;;;33.67;9.53;;;;;;;-0.97;82.56;100773.16;4992034;28;20498;-81
2024/01/13 06:43:52;;;;;;;53.65;11.18;;;;;;;-0.97;82.53;100778.34;4991401;28;20033;-79
2024/01/13 06:46:18;;;;;;;47.87;10.27;;;;;;;-0.96;82.54;100774.94;4991870;28;20118;-82
2024/01/13 06:48:45;;;;;;;38.63;10.10;;;;;;;-0.96;82.31;100780.09;5011290;28;20049;-83
2024/01/13 06:51:10;;;;;;;47.80;12.32;;;;;;;-0.94;82.66;100778.47;4995814;28;20018;-76
2024/01/13 06:53:36;;;;;;;40.42;9.43;;;;;;;-0.95;82.34;100776.72;4991389;28;20101;-79
2024/01/13 06:56:01;;;;;;;33.83;9.57;;;;;;;-0.93;82.05;100771.63;4991667;28;20057;-77
2024/01/13 06:58:27;;;;;;;39.97;11.13;;;;;;;-0.91;82.61;100783.81;4991216;28;20023;-81
2024/01/13 07:00:52;;;;;;;41.00;12.57;;;;;;;-0.90;82.38;100783.00;4991143;28;20066;-77
2024/01/13 07:03:17;;;;;;;39.90;11.38;;;;;;;-0.91;82.35;100788.97;4991161;28;20110;-83
2024/01/13 07:05:43;;;;;;;33.63;10.03;;;;;;;-0.92;82.48;100782.03;4991531;28;20386;-84
2024/01/13 07:08:08;;;;;;;47.70;10.23;;;;;;;-0.91;82.47;100776.06;4991322;28;20031;-77
2024/01/13 07:10:34;;;;;;;35.77;10.47;;;;;;;-0.95;82.25;100761.19;4991349;28;20473;-77
2024/01/13 07:13:00;;;;;;;61.97;11.60;;;;;;;-0.95;82.35;100765.50;5005969;28;20029;-77
2024/01/13 07:15:25;;;;;;;41.67;9.60;;;;;;;-0.95;82.08;100760.34;5010202;28;20597;-78
2024/01/13 07:17:52;;;;;;;35.20;10.18;;;;;;;-0.96;82.17;100764.59;5004001;28;20041;-81
2024/01/13 07:20:17;;;;;;;63.40;11.97;;;;;;;-1.03;82.40;100752.19;4988930;28;20066;-78
2024/01/13 07:22:43;;;;;;;59.35;11.73;;;;;;;-1.04;82.20;100755.56;4990746;28;20030;-77
2024/01/13 07:25:08;;;;;;;44.53;10.73;;;;;;;-1.08;82.34;100751.06;4999241;28;20080;-77
2024/01/13 07:27:33;;;;;;;50.70;9.57;;;;;;;-1.09;82.27;100751.84;4972338;28;20030;-87
2024/01/13 07:29:59;;;;;;;39.73;10.17;;;;;;;-1.08;82.16;100756.22;4991501;28;20026;-79
2024/01/13 07:32:25;;;;;;;30.10;8.75;;;;;;;-1.10;82.31;100753.56;4987796;28;20088;-79
2024/01/13 07:34:50;;;;;;;37.80;10.20;;;;;;;-1.13;82.08;100752.50;4990543;28;20922;-79
2024/01/13 07:37:16;;;;;;;37.22;10.05;;;;;;;-1.16;82.22;100759.28;4990717;28;20037;-84
2024/01/13 07:39:43;;;;;;;35.37;8.17;;;;;;;-1.14;82.25;100750.72;4963941;28;20144;-86
2024/01/13 07:42:08;;;;;;;30.73;9.20;;;;;;;-1.17;82.17;100749.75;4988225;28;20037;-78
2024/01/13 07:44:34;;;;;;;29.50;8.27;;;;;;;-1.17;81.98;100749.75;4990239;28;20035;-77
2024/01/13 07:47:01;;;;;;;34.53;8.70;;;;;;;-1.17;82.04;100765.28;4996368;28;20026;-78
2024/01/13 07:49:30;;;;;;;35.90;9.30;;;;;;;-1.19;81.93;100777.22;4991141;28;20037;-78
2024/01/13 07:51:56;;;;;;;32.45;8.73;;;;;;;-1.20;81.86;100783.22;4999771;28;20058;-82
2024/01/13 07:54:22;;;;;;;27.27;8.60;;;;;;;-1.25;81.86;100779.50;5004428;28;20026;-85
2024/01/13 07:56:49;;;;;;;30.95;8.77;;;;;;;-1.22;82.08;100787.41;4993915;28;20425;-87
2024/01/13 07:59:16;;;;;;;43.67;9.88;;;;;;;-1.18;81.89;100783.31;4989775;28;20069;-78
2024/01/13 08:01:41;;;;;;;33.03;9.63;;;;;;;-1.16;81.92;100771.34;5003710;28;20042;-78
2024/01/13 08:04:07;;;;;;;29.23;9.67;;;;;;;-1.14;81.62;100767.13;4995424;28;20033;-87
2024/01/13 08:06:32;;;;;;;41.80;11.37;;;;;;;-1.12;81.46;100765.50;4991145;28;20064;-81
2024/01/13 08:08:58;;;;;;;39.05;12.65;;;;;;;-1.12;81.58;100769.78;4990126;28;20030;-85
2024/01/13 08:11:23;;;;;;;33.30;11.10;;;;;;;-1.15;81.50;100767.94;4994050;28;20141;-86
2024/01/13 08:13:52;;;;;;;36.80;10.40;;;;;;;-1.14;81.83;100763.66;4990095;28;20034;-88
2024/01/13 08:16:17;;;;;;;42.63;10.60;;;;;;;-1.22;81.66;100761.56;4990203;28;20034;-83
2024/01/13 08:18:42;;;;;;;38.60;10.90;;;;;;;-1.29;81.81;100759.47;4989225;28;20030;-78
2024/01/13 08:21:08;;;;;;;49.13;10.30;;;;;;;-1.27;82.06;100756.97;4973982;28;20503;-84
2024/01/13 08:23:34;;;;;;;36.50;10.97;;;;;;;-1.27;81.86;100764.72;5000569;28;20108;-83
2024/01/13 08:26:00;;;;;;;49.78;11.63;;;;;;;-1.29;81.98;100764.66;5000477;28;20672;-84
2024/01/13 08:28:25;;;;;;;51.42;11.57;;;;;;;-1.33;81.81;100765.28;4997623;28;20118;-86
2024/01/13 08:30:51;;;;;;;46.43;12.57;;;;;;;-1.37;81.91;100772.00;4998909;28;20189;-82
2024/01/13 08:33:16;;;;;;;42.05;10.73;;;;;;;-1.38;81.96;100766.72;4996556;28;20034;-77
2024/01/13 08:35:41;;;;;;;32.03;10.77;;;;;;;-1.37;81.86;100771.09;4988980;28;20045;-83
2024/01/13 08:38:07;;;;;;;34.87;12.30;;;;;;;-1.30;81.94;100770.63;5001200;28;20037;-82
2024/01/13 08:40:32;;;;;;;35.80;11.27;;;;;;;-1.25;81.63;100771.75;4991968;28;20106;-78
2024/01/13 08:43:00;;;;;;;38.72;14.13;;;;;;;-1.22;81.75;100791.66;4988611;28;20058;-79
2024/01/13 08:45:29;;;;;;;32.50;10.47;;;;;;;-1.21;81.78;100789.19;4993805;28;20042;-81
2024/01/13 08:47:56;;;;;;;41.30;12.30;;;;;;;-1.19;81.71;100786.69;4991790;28;20125;-81
2024/01/13 08:50:22;;;;;;;40.90;12.00;;;;;;;-1.20;81.79;100790.97;4990441;28;20038;-87
2024/01/13 08:52:51;;;;;;;34.83;11.67;;;;;;;-1.17;81.42;100779.91;4990573;28;20032;-86
2024/01/13 08:55:17;;;;;;;32.17;11.05;;;;;;;-1.09;81.66;100781.19;4995590;28;20030;-87
2024/01/13 08:57:42;;;;;;;35.45;11.57;;;;;;;-1.01;81.45;100773.81;5006294;28;20529;-88
2024/01/13 09:00:08;;;;;;;34.07;11.60;;;;;;;-0.95;81.75;100771.53;5003774;28;20052;-88
2024/01/13 09:02:34;;;;;;;40.63;12.32;;;;;;;-0.87;81.32;100782.28;5011962;28;20030;-88
2024/01/13 09:04:59;;;;;;;36.00;11.40;;;;;;;-0.83;81.32;100778.16;4991684;28;20030;-88
2024/01/13 09:07:24;;;;;;;34.83;11.07;;;;;;;-0.80;81.26;100781.78;4980218;28;20027;-80
2024/01/13 09:09:50;;;;;;;43.67;11.43;;;;;;;-0.77;81.18;100786.22;4980665;28;20046;-81
2024/01/13 09:12:15;;;;;;;36.10;10.63;;;;;;;-0.77;81.12;100789.69;4993518;28;20018;-89
2024/01/13 09:14:41;;;;;;;37.20;11.40;;;;;;;-0.73;81.21;100798.50;5003952;28;20117;-86
2024/01/13 09:17:06;;;;;;;47.50;14.37;;;;;;;-0.68;81.39;100801.31;5002202;28;20088;-86
2024/01/13 09:19:31;;;;;;;32.53;11.07;;;;;;;-0.69;81.15;100792.66;4996499;28;20533;-86
2024/01/13 09:21:57;;;;;;;33.47;11.13;;;;;;;-0.66;81.01;100787.63;4990707;28;20029;-90
2024/01/13 09:24:22;;;;;;;37.07;14.13;;;;;;;-0.63;81.33;100773.97;4991879;28;20066;-83
2024/01/13 09:26:48;;;;;;;40.53;13.77;;;;;;;-0.55;81.23;100776.94;4996263;28;20269;-87
2024/01/13 09:29:15;;;;;;;41.13;13.23;;;;;;;-0.51;80.90;100787.50;4974029;28;20511;-84
2024/01/13 09:31:41;;;;;;;41.50;13.00;;;;;;;-0.48;80.62;100786.78;4989472;28;20517;-86
2024/01/13 09:34:07;;;;;;;37.97;12.57;;;;;;;-0.45;80.37;100790.41;4991382;28;20030;-85
2024/01/13 09:36:32;;;;;;;38.75;13.48;;;;;;;-0.39;80.95;100792.38;4998454;28;20042;-87
2024/01/13 09:38:58;;;;;;;38.00;13.03;;;;;;;-0.42;81.08;100794.81;5006944;28;20022;-86
2024/01/13 09:41:23;;;;;;;46.83;16.07;;;;;;;-0.39;80.86;100784.63;5002643;28;20046;-84
2024/01/13 09:44:03;;;;;;;36.57;13.10;;;;;;;-0.34;80.58;100783.19;4994484;28;20041;-86
2024/01/13 09:46:29;;;;;;;35.72;12.50;;;;;;;-0.30;80.84;100786.78;5001779;28;20026;-84
2024/01/13 09:48:56;;;;;;;39.33;14.70;;;;;;;-0.24;80.77;100800.03;4997461;28;20026;-82
2024/01/13 09:51:25;;;;;;;45.38;15.70;;;;;;;-0.18;80.55;100789.06;4993901;28;20030;-86
2024/01/13 09:53:56;;;;;;;40.47;14.20;;;;;;;-0.13;80.77;100795.34;4991053;28;20026;-83
2024/01/13 09:56:29;;;;;;;34.13;12.13;;;;;;;-0.11;80.63;100796.34;4992383;28;20052;-86
2024/01/13 09:58:54;;;;;;;28.77;11.82;;;;;;;-0.05;80.64;100791.44;4959349;28;1186260;-85
2024/01/13 10:01:20;;;;;;;33.70;11.60;;;;;;;0.03;80.05;100785.72;5001732;28;20084;-79
2024/01/13 10:03:45;;;;;;;29.80;11.25;;;;;;;0.09;79.81;100786.00;5009010;28;20026;-77
2024/01/13 10:06:12;;;;;;;34.93;12.37;;;;;;;0.13;80.32;100794.00;4993425;28;20026;-82
2024/01/13 10:08:37;;;;;;;32.20;12.23;;;;;;;0.17;79.34;100787.28;5000960;28;20030;-76
2024/01/13 10:11:06;;;;;;;34.33;11.97;;;;;;;0.20;79.93;100792.59;5002150;28;20045;-77
2024/01/13 10:13:31;;;;;;;33.85;13.18;;;;;;;0.24;80.42;100788.44;5007103;28;20030;-85
2024/01/13 10:15:57;;;;;;;34.53;12.70;;;;;;;0.27;79.61;100784.28;5004472;28;20038;-79
2024/01/13 10:18:25;;;;;;;67.67;23.30;;;;;;;0.33;79.96;100780.19;5008366;28;20548;-82
2024/01/13 10:20:51;;;;;;;87.95;30.50;;;;;;;0.37;79.88;100770.06;4993050;28;20034;-81
2024/01/13 10:23:17;;;;;;;52.75;19.35;;;;;;;0.41;79.49;100771.09;4999330;28;20553;-84
2024/01/13 10:25:42;;;;;;;57.50;20.57;;;;;;;0.43;79.18;100772.03;4981291;28;20081;-82
2024/01/13 10:28:08;;;;;;;65.68;22.25;;;;;;;0.47;79.71;100771.38;4998737;28;20026;-81
2024/01/13 10:30:34;;;;;;;35.57;13.40;;;;;;;0.53;79.83;100763.84;4996048;28;20038;-86
2024/01/13 10:32:59;;;;;;;66.73;23.40;;;;;;;0.59;79.86;100759.75;5011199;28;20026;-84
2024/01/13 10:35:27;;;;;;;36.83;14.18;;;;;;;0.63;78.95;100756.50;5009476;28;20026;-76
2024/01/13 10:37:55;;;;;;;38.95;15.38;;;;;;;0.68;79.74;100747.22;4997706;28;20054;-76
2024/01/13 10:40:21;;;;;;;36.63;14.27;;;;;;;0.74;79.07;100741.44;4974422;28;20037;-75
2024/01/13 10:42:48;;;;;;;38.23;15.40;;;;;;;0.79;79.52;100733.00;4999773;28;20031;-76
2024/01/13 10:45:18;;;;;;;28.87;11.87;;;;;;;0.78;79.60;100735.56;4991227;28;20341;-77
2024/01/13 10:47:51;;;;;;;36.75;14.02;;;;;;;0.87;79.42;100735.06;5001783;28;20097;-76
2024/01/13 10:50:17;;;;;;;47.55;19.67;;;;;;;0.95;78.85;100724.19;4991296;28;20073;-76
2024/01/13 10:53:01;;;;;;;37.78;14.85;;;;;;;1.09;79.19;100721.28;4991496;28;20438;-77
2024/01/13 10:55:29;;;;;;;34.93;13.87;;;;;;;1.21;78.94;100719.22;4991234;28;20069;-81
2024/01/13 10:57:56;;;;;;;36.75;14.23;;;;;;;1.28;78.80;100718.66;4999676;28;20040;-77
2024/01/13 11:00:22;;;;;;;36.90;14.27;;;;;;;1.35;79.15;100712.00;5007861;28;20064;-79
2024/01/13 11:02:48;;;;;;;40.60;14.70;;;;;;;1.52;78.76;100711.78;5004527;28;20062;-78